Tropical Cyclones
[Index]
Main Index Home Page Stock Weather Photos Extreme Storms Discussion Storm News and Storm Chasing Reports Tropical Cyclones / Hurricanes / Typhoons Weather Data and Links Wild Fires / Bushfires Weather Observation Techniques Weather Picture Catalogue Tornado Pictures and Reports Stock Video Footage and DVDs for sale
Season 1967-1968 Tropical Cyclone BELINDA Track Map
Season 1967-1968 Summaries: [BoM-AU] [JTWC-AU] [JTWC-SIO] [JTWC-SPAC] [JTWC-SH]
<<- Previous TC | JTWC 1967-1968 Season | Next TC ->>

click for intensity scale information  Lat/long Grid: Show Hide

 Date Labels: Show Hide

Joint Typhoon Warning Centre Cyclone Data

Name: BELINDA
Number: 648 / 6803

08 Dec 1967 06:00 UTC to 22 Dec 1967 06:00 UTC

    date/time    lat    long     hPa   cat  kts
1967-12-08 06    8.0    78.3                              
1967-12-08 12    8.1    78.1                              
1967-12-08 18    8.2    77.9                              
1967-12-09 00    8.4    77.6                              
1967-12-09 06    8.6    77.4                              
1967-12-09 12    8.7    77.2                              
1967-12-09 18    8.8    77.0                              
1967-12-10 00    8.9    76.8                              
1967-12-10 06    9.0    76.6                              
1967-12-10 12    9.2    76.3                              
1967-12-10 18    9.4    76.0                              
1967-12-11 00    9.7    75.7                              
1967-12-11 06   10.0    75.4                              
1967-12-11 12   10.3    75.2                              
1967-12-11 18   10.5    75.0                              
1967-12-12 00   10.8    74.8                              
1967-12-12 06   11.1    74.6                              
1967-12-12 12   11.6    74.5                              
1967-12-12 18   12.1    74.5                              
1967-12-13 00   12.7    74.5                              
1967-12-13 06   13.3    74.6                              
1967-12-13 12   13.8    74.6                              
1967-12-13 18   14.2    74.7                              
1967-12-14 00   14.6    74.8                              
1967-12-14 06   15.0    74.9                              
1967-12-14 12   15.7    75.0                              
1967-12-14 18   16.5    75.0                              
1967-12-15 00   17.1    75.0                              
1967-12-15 06   17.6    75.0                              
1967-12-15 12   18.1    74.8                              
1967-12-15 18   18.5    74.4                              
1967-12-16 00   18.8    73.9                              
1967-12-16 06   19.0    73.4                              
1967-12-16 12   19.0    73.0                              
1967-12-16 18   19.0    72.6                              
1967-12-17 00   19.0    72.3                              
1967-12-17 06   19.0    72.1                              
1967-12-17 12   19.0    71.8                              
1967-12-17 18   19.1    71.4                              
1967-12-18 00   19.1    71.0                              
1967-12-18 06   19.1    70.5                              
1967-12-18 12   19.0    70.2                              
1967-12-18 18   19.0    69.8                              
1967-12-19 00   19.0    69.4                              
1967-12-19 06   19.0    68.9                              
1967-12-19 12   19.0    68.5                              
1967-12-19 18   19.0    68.0                              
1967-12-20 00   19.0    67.5                              
1967-12-20 06   19.1    67.0                              
1967-12-20 12   19.5    66.5                              
1967-12-20 18   20.2    66.0                              
1967-12-21 00   20.9    65.8                              
1967-12-21 06   21.7    66.0                              
1967-12-21 12   22.8    66.6                              
1967-12-21 18   24.0    67.4                              
1967-12-22 00   25.1    68.3                              
1967-12-22 06   26.1    69.2                              
Winds are 1-min average.

Tropical cyclone tracks developed by Michael Bath using data from the Joint Typhoon Warning Centre Best Tracks and Google Maps.


[Australian Severe Weather index] [Copyright Notice] [Email Contacts] [Search This Site] [Privacy Policy]
Document: tropical_cyclone_belinda.htm Updated: 18 September 2016